Time;durP1;ratioP1;P1;durP2;ratioP2;P2;SDS_P1;SDS_P2;PMS_P1;PMS_P2;Temp;Humidity;BMP_temperature;BMP_pressure;BME280_temperature;BME280_humidity;BME280_pressure;Samples;Min_cycle;Max_cycle;Signal;HPM_P1;HPM_P2
2023/06/26 00:01:39;;;;;;;12.77;9.68;;;;;;;23.84;74.45;101126.81;5109582;28;20068;-73
2023/06/26 00:04:05;;;;;;;14.30;10.23;;;;;;;23.91;73.95;101131.97;5109516;28;20465;-73
2023/06/26 00:06:30;;;;;;;14.15;9.65;;;;;;;23.86;73.62;101111.03;5108058;28;20386;-72
2023/06/26 00:08:58;;;;;;;13.68;10.23;;;;;;;23.86;73.76;101121.91;5108052;28;20036;-72
2023/06/26 00:11:24;;;;;;;16.45;8.93;;;;;;;23.81;74.54;101117.28;5109283;28;20019;-72
2023/06/26 00:13:50;;;;;;;14.07;9.40;;;;;;;23.82;74.04;101118.13;5109383;28;20030;-73
2023/06/26 00:16:15;;;;;;;15.90;10.07;;;;;;;23.75;73.93;101126.59;5108977;28;20019;-73
2023/06/26 00:18:41;;;;;;;14.57;9.57;;;;;;;23.72;74.22;101127.16;5107431;28;20050;-73
2023/06/26 00:21:06;;;;;;;15.10;10.02;;;;;;;23.65;75.05;101129.31;5109252;28;20109;-73
2023/06/26 00:31:40;;;;;;;15.80;9.40;;;;;;;23.43;75.17;101131.59;5514499;22;20054;-73
2023/06/26 00:36:47;;;;;;;17.73;9.85;;;;;;;23.33;75.61;101119.59;5452699;22;20049;-74
2023/06/26 00:39:12;;;;;;;14.50;9.20;;;;;;;23.32;75.04;101117.19;5048625;28;20032;-75
2023/06/26 00:41:38;;;;;;;12.05;8.43;;;;;;;23.25;74.93;101114.72;5048444;28;20078;-75
2023/06/26 00:44:04;;;;;;;15.45;10.38;;;;;;;23.19;75.29;101110.41;5048549;28;20014;-74
2023/06/26 00:46:31;;;;;;;12.23;8.50;;;;;;;23.21;75.29;101115.56;5030995;28;20082;-74
2023/06/26 00:49:03;;;;;;;11.68;9.18;;;;;;;23.13;75.28;101119.63;5048455;28;20051;-75
2023/06/26 00:51:29;;;;;;;19.15;9.18;;;;;;;23.12;75.79;101120.75;5048535;28;20390;-74
2023/06/26 00:53:56;;;;;;;13.88;8.23;;;;;;;23.06;75.77;101110.97;5048252;28;20028;-74
2023/06/26 00:56:21;;;;;;;13.02;8.30;;;;;;;23.06;75.87;101125.38;5048656;28;20032;-75
2023/06/26 00:58:47;;;;;;;14.10;9.90;;;;;;;22.96;75.85;101112.59;5048611;28;20082;-74
2023/06/26 01:01:17;;;;;;;12.70;8.90;;;;;;;22.97;76.32;101121.56;5048466;28;20498;-74
2023/06/26 01:03:45;;;;;;;14.60;9.13;;;;;;;22.90;76.68;101121.81;5030474;28;20406;-74
2023/06/26 01:06:13;;;;;;;13.10;8.45;;;;;;;22.86;76.67;101120.72;5048366;28;20045;-74
2023/06/26 01:08:40;;;;;;;13.50;8.95;;;;;;;22.84;76.66;101116.63;5048285;28;20166;-74
2023/06/26 01:11:06;;;;;;;12.77;9.52;;;;;;;22.75;77.24;101122.63;5048575;28;20479;-74
2023/06/26 01:13:33;;;;;;;14.48;9.70;;;;;;;22.71;76.61;101115.28;5048224;28;20032;-74
2023/06/26 01:15:59;;;;;;;12.93;8.82;;;;;;;22.71;77.07;101121.53;5030542;28;20072;-74
2023/06/26 01:18:26;;;;;;;15.05;9.93;;;;;;;22.65;76.79;101129.97;5048205;28;20025;-74
2023/06/26 01:20:53;;;;;;;12.93;9.10;;;;;;;22.59;76.91;101117.47;5030454;28;20033;-74
2023/06/26 01:23:30;;;;;;;16.27;10.05;;;;;;;22.58;77.35;101134.84;5030582;28;20159;-75
2023/06/26 01:26:07;;;;;;;15.27;9.15;;;;;;;22.55;76.93;101136.19;5047950;28;20137;-74
2023/06/26 01:28:35;;;;;;;15.68;9.45;;;;;;;22.43;77.52;101132.94;5049190;28;20114;-74
2023/06/26 01:31:02;;;;;;;12.73;9.38;;;;;;;22.44;77.51;101135.38;5034051;28;20550;-75
2023/06/26 01:33:28;;;;;;;15.48;8.82;;;;;;;22.42;78.32;101142.16;5051549;28;20037;-74
2023/06/26 01:35:53;;;;;;;15.18;9.60;;;;;;;22.40;77.97;101134.28;5051125;28;20523;-75
2023/06/26 01:38:20;;;;;;;16.17;8.98;;;;;;;22.31;78.61;101144.84;5051232;28;20045;-75
2023/06/26 01:40:46;;;;;;;14.77;9.25;;;;;;;22.23;78.98;101134.50;5051443;28;20051;-74
2023/06/26 01:43:24;;;;;;;14.48;9.20;;;;;;;22.27;78.76;101149.22;5051169;28;20380;-74
2023/06/26 01:45:52;;;;;;;14.88;8.82;;;;;;;22.19;79.91;101147.00;5051418;28;20371;-74
2023/06/26 01:48:31;;;;;;;14.73;8.27;;;;;;;22.15;79.40;101154.03;5051023;28;20024;-75
2023/06/26 01:50:59;;;;;;;16.05;8.55;;;;;;;22.14;78.43;101165.13;5050977;28;20708;-75
2023/06/26 01:53:34;;;;;;;16.02;7.95;;;;;;;22.05;78.87;101162.13;5050904;28;20036;-74
2023/06/26 01:56:07;;;;;;;12.75;7.38;;;;;;;21.99;78.75;101166.72;5050861;28;20185;-75
2023/06/26 01:58:35;;;;;;;12.00;6.90;;;;;;;22.01;78.80;101171.91;5050719;28;20108;-75
2023/06/26 02:01:00;;;;;;;12.68;7.13;;;;;;;21.94;78.74;101176.75;5050856;28;20025;-74
2023/06/26 02:03:26;;;;;;;12.55;6.50;;;;;;;21.91;78.58;101182.72;5050772;28;20021;-74
2023/06/26 02:05:51;;;;;;;9.80;6.03;;;;;;;21.85;79.05;101179.97;5050714;28;20078;-74
2023/06/26 02:08:17;;;;;;;11.65;6.25;;;;;;;21.82;79.46;101194.09;5050710;28;20082;-74
2023/06/26 02:10:42;;;;;;;13.45;7.20;;;;;;;21.78;79.80;101187.53;5050578;28;20037;-75
2023/06/26 02:13:07;;;;;;;11.55;7.10;;;;;;;21.73;80.13;101190.22;5050245;28;20108;-75
2023/06/26 02:15:33;;;;;;;11.80;6.22;;;;;;;21.73;80.12;101186.69;5032507;28;20025;-75
2023/06/26 02:17:58;;;;;;;13.32;7.43;;;;;;;21.64;81.19;101181.78;5032770;28;20364;-75
2023/06/26 02:20:23;;;;;;;11.25;6.32;;;;;;;21.64;80.64;101183.66;5032580;28;20036;-75
2023/06/26 02:22:49;;;;;;;8.85;6.07;;;;;;;21.58;81.16;101182.00;5050335;28;20048;-75
2023/06/26 02:25:15;;;;;;;10.57;6.15;;;;;;;21.55;81.34;101182.53;5050200;28;20020;-75
2023/06/26 02:27:40;;;;;;;10.70;6.13;;;;;;;21.48;81.76;101177.31;5050341;28;20135;-74
2023/06/26 02:30:08;;;;;;;9.90;5.75;;;;;;;21.49;81.33;101183.56;5032352;28;20112;-75
2023/06/26 02:32:33;;;;;;;9.82;6.30;;;;;;;21.46;81.41;101176.78;5049926;28;20033;-75
2023/06/26 02:34:58;;;;;;;11.07;6.25;;;;;;;21.39;81.70;101178.88;5050346;28;20036;-74
2023/06/26 02:37:24;;;;;;;9.13;5.50;;;;;;;21.24;81.85;101160.56;5049699;28;20051;-75
2023/06/26 02:39:49;;;;;;;12.23;6.47;;;;;;;21.31;81.65;101193.72;5049569;28;20029;-74
2023/06/26 02:42:14;;;;;;;9.07;5.43;;;;;;;21.24;81.68;101180.38;5049787;28;20127;-75
2023/06/26 02:44:40;;;;;;;8.85;4.95;;;;;;;21.22;81.75;101189.84;5050019;28;20158;-75
2023/06/26 02:47:06;;;;;;;10.27;5.57;;;;;;;21.20;82.07;101192.84;5049899;28;20037;-75
2023/06/26 02:49:31;;;;;;;11.25;6.45;;;;;;;21.11;82.44;101202.50;5049902;28;20048;-75
2023/06/26 02:51:56;;;;;;;10.00;5.18;;;;;;;21.05;83.28;101197.31;5049730;28;20475;-75
2023/06/26 02:54:22;;;;;;;11.02;5.35;;;;;;;21.00;82.77;101204.31;5049698;28;20509;-75
2023/06/26 02:56:48;;;;;;;13.43;6.70;;;;;;;20.94;82.79;101205.34;5049676;28;20032;-75
2023/06/26 02:59:13;;;;;;;9.50;5.38;;;;;;;20.95;82.67;101214.31;5049808;28;20037;-75
2023/06/26 03:01:38;;;;;;;9.07;5.03;;;;;;;20.96;83.05;101213.25;5049729;28;20063;-75
2023/06/26 03:04:04;;;;;;;8.63;5.25;;;;;;;20.88;83.55;101214.53;5031768;28;20027;-75
2023/06/26 03:06:30;;;;;;;11.50;5.68;;;;;;;20.89;83.13;101212.63;5049498;28;20029;-75
2023/06/26 03:08:55;;;;;;;7.72;4.25;;;;;;;20.86;83.91;101224.81;5031811;28;20479;-74
2023/06/26 03:11:20;;;;;;;9.88;5.05;;;;;;;20.83;83.95;101227.19;5049380;28;20483;-74
2023/06/26 03:13:46;;;;;;;7.68;4.10;;;;;;;20.80;84.08;101225.81;5049306;28;20032;-75
2023/06/26 03:16:11;;;;;;;9.40;4.88;;;;;;;20.77;84.05;101218.19;5049453;28;20032;-75
2023/06/26 03:18:36;;;;;;;9.25;4.43;;;;;;;20.71;84.31;101225.47;5049359;28;20124;-75
2023/06/26 03:21:02;;;;;;;9.88;5.15;;;;;;;20.67;84.44;101226.22;5049309;28;20135;-75
2023/06/26 03:23:27;;;;;;;10.23;5.05;;;;;;;20.57;84.76;101221.53;5049698;28;20505;-75
2023/06/26 03:25:53;;;;;;;11.30;6.03;;;;;;;20.59;84.56;101224.78;5031232;28;20028;-75
2023/06/26 03:28:19;;;;;;;11.55;5.13;;;;;;;20.49;85.14;101224.66;5030940;28;20128;-75
2023/06/26 03:30:44;;;;;;;7.93;4.70;;;;;;;20.44;85.56;101225.41;5031351;28;20285;-75
2023/06/26 03:33:10;;;;;;;10.15;4.35;;;;;;;20.42;85.86;101232.16;5049028;28;20033;-74
2023/06/26 03:35:35;;;;;;;8.88;4.57;;;;;;;20.39;86.17;101227.25;5048830;28;20033;-75
2023/06/26 03:38:01;;;;;;;9.73;4.45;;;;;;;20.33;86.11;101226.34;5015635;28;20136;-75
2023/06/26 03:40:27;;;;;;;9.82;5.47;;;;;;;20.30;86.35;101224.13;5029655;28;20041;-75
2023/06/26 03:42:52;;;;;;;9.27;4.10;;;;;;;20.27;86.55;101224.66;5030313;28;20368;-75
2023/06/26 03:45:19;;;;;;;8.40;4.50;;;;;;;20.20;87.05;101221.31;5029627;28;20464;-75
2023/06/26 03:47:46;;;;;;;10.38;4.85;;;;;;;20.16;86.67;101214.78;5029616;28;20040;-75
2023/06/26 03:50:12;;;;;;;9.27;4.43;;;;;;;20.11;87.01;101219.03;5029784;28;20032;-75
2023/06/26 03:52:37;;;;;;;8.82;3.92;;;;;;;20.14;87.15;101223.13;5011311;28;20045;-75
2023/06/26 03:55:03;;;;;;;11.77;5.03;;;;;;;20.05;87.85;101233.59;5029837;28;20021;-74
2023/06/26 03:57:28;;;;;;;10.85;4.90;;;;;;;20.05;87.98;101232.78;5029490;28;20076;-75
2023/06/26 03:59:54;;;;;;;9.00;4.82;;;;;;;20.03;87.96;101237.63;5011753;28;20163;-75
2023/06/26 04:02:19;;;;;;;11.73;4.50;;;;;;;20.01;88.36;101240.56;5029380;28;20120;-75
2023/06/26 04:04:44;;;;;;;14.18;5.00;;;;;;;20.00;88.20;101238.13;5048540;28;20038;-74
2023/06/26 04:07:10;;;;;;;14.20;5.53;;;;;;;19.98;88.57;101246.47;5046736;28;20503;-74
2023/06/26 04:09:35;;;;;;;10.35;5.68;;;;;;;19.95;88.77;101247.00;5011667;28;20379;-74
2023/06/26 04:12:01;;;;;;;10.63;5.07;;;;;;;19.89;89.19;101248.00;5029375;28;20087;-75
2023/06/26 04:14:26;;;;;;;7.85;4.18;;;;;;;19.87;89.49;101260.94;5029357;28;20040;-75
2023/06/26 04:16:52;;;;;;;9.93;4.57;;;;;;;19.90;89.63;101263.16;5029479;28;20033;-75
2023/06/26 04:19:17;;;;;;;11.45;5.60;;;;;;;19.81;90.60;101251.13;5011697;28;20033;-75
2023/06/26 04:21:43;;;;;;;10.20;3.85;;;;;;;19.82;91.02;101264.41;5029432;28;20896;-74
2023/06/26 04:24:08;;;;;;;10.77;4.50;;;;;;;19.81;91.92;101278.19;5037549;28;20056;-75
2023/06/26 04:26:34;;;;;;;14.35;4.70;;;;;;;19.73;93.03;101270.47;5048114;28;20029;-75
2023/06/26 04:29:00;;;;;;;10.55;4.53;;;;;;;19.74;93.59;101274.84;5048118;28;20021;-77
2023/06/26 04:31:25;;;;;;;8.88;3.97;;;;;;;19.73;94.54;101284.84;5048149;28;20029;-75
2023/06/26 04:33:52;;;;;;;12.50;5.15;;;;;;;19.73;94.90;101286.72;5048315;28;20036;-75
2023/06/26 04:36:18;;;;;;;15.70;4.97;;;;;;;19.77;95.15;101283.28;5048114;28;20111;-75
2023/06/26 04:38:43;;;;;;;7.38;4.68;;;;;;;19.77;95.50;101277.03;5048277;28;20560;-76
2023/06/26 04:41:09;;;;;;;9.90;4.80;;;;;;;19.76;95.87;101278.13;5047981;28;20037;-75
2023/06/26 04:43:34;;;;;;;13.20;5.85;;;;;;;19.95;96.09;101294.91;5048256;28;20099;-75
2023/06/26 04:46:00;;;;;;;10.25;4.63;;;;;;;20.12;95.05;101293.81;5030198;28;20037;-75
2023/06/26 04:48:27;;;;;;;12.80;5.07;;;;;;;20.13;94.87;101294.63;5048216;28;20039;-75
2023/06/26 04:50:55;;;;;;;14.75;5.47;;;;;;;20.12;96.05;101301.94;5027105;28;20025;-75
2023/06/26 04:53:22;;;;;;;14.70;4.97;;;;;;;20.16;95.84;101306.84;5028872;28;20051;-75
2023/06/26 04:55:49;;;;;;;10.15;4.50;;;;;;;20.16;95.69;101302.25;5029053;28;20052;-75
2023/06/26 04:58:14;;;;;;;13.30;5.28;;;;;;;20.18;95.63;101300.13;5029018;28;20072;-75
2023/06/26 05:00:42;;;;;;;17.77;6.47;;;;;;;20.23;96.23;101302.91;5030679;28;20104;-75
2023/06/26 05:03:11;;;;;;;10.88;4.93;;;;;;;20.29;96.04;101306.50;5031967;28;20032;-75
2023/06/26 05:05:37;;;;;;;17.83;6.32;;;;;;;20.32;96.01;101316.81;5033695;28;20094;-74
2023/06/26 05:08:24;;;;;;;14.25;6.15;;;;;;;20.41;95.65;101323.47;5051437;28;20426;-76
2023/06/26 05:10:49;;;;;;;11.88;5.53;;;;;;;20.61;94.36;101319.41;5051513;28;20116;-75
2023/06/26 05:13:17;;;;;;;15.10;5.30;;;;;;;20.62;94.51;101321.03;5051509;28;20107;-75
2023/06/26 05:15:43;;;;;;;14.52;6.38;;;;;;;20.60;94.57;101323.19;5046628;28;20033;-75
2023/06/26 05:18:09;;;;;;;14.80;5.70;;;;;;;20.42;95.18;101306.13;5014603;28;20040;-74
2023/06/26 05:20:35;;;;;;;13.43;5.85;;;;;;;20.48;95.90;101329.50;5032389;28;20116;-75
2023/06/26 05:23:04;;;;;;;13.55;4.95;;;;;;;20.41;95.92;101337.00;5014581;28;20672;-75
2023/06/26 05:25:31;;;;;;;16.08;5.38;;;;;;;20.35;96.31;101330.69;5032241;28;20502;-75
2023/06/26 05:27:58;;;;;;;14.13;5.78;;;;;;;20.31;96.78;101334.16;5032704;28;20034;-75
2023/06/26 05:30:25;;;;;;;10.50;4.25;;;;;;;20.29;96.00;101339.00;5014371;28;20044;-76
2023/06/26 05:32:51;;;;;;;12.77;4.40;;;;;;;20.34;94.77;101339.06;5032240;28;20036;-75
2023/06/26 05:35:18;;;;;;;15.55;5.70;;;;;;;20.34;93.80;101339.06;5031698;28;20072;-75
2023/06/26 05:37:44;;;;;;;13.73;4.22;;;;;;;20.33;94.61;101343.69;5051033;28;20052;-75
2023/06/26 05:40:10;;;;;;;8.93;4.60;;;;;;;20.33;93.63;101335.56;5043509;28;20365;-75
2023/06/26 05:42:35;;;;;;;16.00;5.38;;;;;;;20.49;93.48;101349.31;5032342;28;20052;-75
2023/06/26 05:45:01;;;;;;;13.90;5.20;;;;;;;20.65;93.82;101358.50;5031883;28;20032;-75
2023/06/26 05:47:26;;;;;;;9.45;3.70;;;;;;;20.73;93.23;101358.03;5014095;28;20087;-76
2023/06/26 05:49:51;;;;;;;12.30;3.75;;;;;;;20.64;91.23;101367.66;5031676;28;20029;-75
2023/06/26 05:52:17;;;;;;;12.85;4.68;;;;;;;20.52;91.21;101359.63;5032050;28;20040;-75
2023/06/26 05:54:43;;;;;;;9.38;3.60;;;;;;;20.51;90.76;101366.97;5031774;28;20026;-75
2023/06/26 05:57:09;;;;;;;12.70;4.72;;;;;;;20.58;91.77;101370.31;5031800;28;20167;-75
2023/06/26 05:59:39;;;;;;;11.23;4.05;;;;;;;20.71;91.24;101374.56;5031807;28;20036;-74
2023/06/26 06:02:04;;;;;;;10.88;4.80;;;;;;;20.83;91.66;101381.72;5031553;28;20407;-75
2023/06/26 06:04:29;;;;;;;14.93;5.95;;;;;;;20.74;88.78;101374.03;5031432;28;20040;-75
2023/06/26 06:06:55;;;;;;;12.35;4.75;;;;;;;20.67;89.68;101373.44;5031766;28;20072;-76
2023/06/26 06:09:20;;;;;;;13.23;3.72;;;;;;;20.72;88.95;101384.34;5031620;28;20025;-75
2023/06/26 06:11:46;;;;;;;10.20;3.65;;;;;;;20.69;87.01;101381.28;5031146;28;20037;-75
2023/06/26 06:14:11;;;;;;;10.25;4.18;;;;;;;20.74;88.17;101393.03;5030616;28;20039;-76
2023/06/26 06:16:37;;;;;;;15.90;4.63;;;;;;;20.75;87.32;101394.69;5031501;28;20124;-75
2023/06/26 06:19:03;;;;;;;14.98;4.18;;;;;;;20.79;86.78;101393.09;5031522;28;20033;-76
2023/06/26 06:21:28;;;;;;;11.05;3.83;;;;;;;20.81;86.62;101402.88;5031356;28;20042;-76
2023/06/26 06:23:54;;;;;;;14.00;3.40;;;;;;;20.81;86.82;101409.13;5031246;28;20036;-75
2023/06/26 06:26:19;;;;;;;11.60;4.03;;;;;;;20.81;85.79;101417.25;5013315;28;20037;-75
2023/06/26 06:28:44;;;;;;;10.52;3.88;;;;;;;20.78;86.54;101407.72;5031136;28;20090;-77
2023/06/26 06:31:10;;;;;;;16.20;4.28;;;;;;;20.85;86.86;101421.06;5042270;28;20078;-76
2023/06/26 06:33:35;;;;;;;11.15;3.28;;;;;;;20.88;87.57;101417.03;5049982;28;20067;-77
2023/06/26 06:36:00;;;;;;;12.27;3.72;;;;;;;20.88;85.36;101423.31;5050066;28;20060;-77
2023/06/26 06:38:26;;;;;;;13.75;3.90;;;;;;;20.86;85.19;101421.94;5032148;28;20448;-77
2023/06/26 06:40:51;;;;;;;11.05;3.70;;;;;;;20.88;85.50;101423.31;5050222;28;20128;-77
2023/06/26 06:43:16;;;;;;;13.60;4.13;;;;;;;20.91;85.90;101424.69;5049733;28;20071;-76
2023/06/26 06:45:42;;;;;;;14.82;4.07;;;;;;;20.92;85.85;101421.72;5027658;28;20075;-77
2023/06/26 06:48:07;;;;;;;13.98;4.22;;;;;;;20.99;85.11;101426.97;5012652;28;20075;-76
2023/06/26 06:50:33;;;;;;;8.98;3.20;;;;;;;20.99;84.91;101432.41;5041428;28;20057;-76
2023/06/26 06:52:58;;;;;;;16.30;4.63;;;;;;;21.04;83.37;101442.47;5049831;28;20123;-76
2023/06/26 06:55:24;;;;;;;9.30;3.00;;;;;;;21.11;83.83;101446.63;5024107;28;20057;-77
2023/06/26 06:57:50;;;;;;;8.57;3.92;;;;;;;21.18;84.19;101447.25;5042694;28;20128;-76
2023/06/26 07:00:15;;;;;;;11.70;3.90;;;;;;;21.09;84.26;101432.53;5049603;28;20147;-75
2023/06/26 07:02:44;;;;;;;9.07;3.00;;;;;;;21.23;82.94;101447.34;5048484;28;20037;-77
2023/06/26 07:05:10;;;;;;;8.75;3.00;;;;;;;21.28;83.29;101452.00;5037219;28;20478;-77
2023/06/26 07:07:36;;;;;;;11.75;4.35;;;;;;;21.31;82.44;101454.19;5048105;28;20658;-77
2023/06/26 07:10:08;;;;;;;9.48;3.22;;;;;;;21.38;82.47;101459.47;5045673;28;20056;-77
2023/06/26 07:12:33;;;;;;;;;;;;;;;21.52;82.27;101468.03;5038773;28;20029;-77
2023/06/26 07:15:00;;;;;;;9.47;3.27;;;;;;;21.51;82.37;101467.22;5000972;28;19917;-77
2023/06/26 07:17:26;;;;;;;12.18;4.10;;;;;;;21.50;83.08;101464.75;5039530;28;20072;-77
2023/06/26 07:19:51;;;;;;;8.40;3.38;;;;;;;21.46;80.64;101467.16;5045812;28;20060;-77
2023/06/26 07:22:18;;;;;;;7.43;2.95;;;;;;;21.38;80.97;101470.34;5032780;28;20472;-78
2023/06/26 07:24:44;;;;;;;7.85;3.15;;;;;;;21.28;82.68;101473.72;5038609;28;20036;-77
2023/06/26 07:27:09;;;;;;;7.32;3.47;;;;;;;21.20;82.53;101476.88;5031883;28;20029;-79
2023/06/26 07:29:34;;;;;;;7.93;3.88;;;;;;;21.05;83.40;101476.66;5038342;28;20029;-77
2023/06/26 07:32:00;;;;;;;7.30;2.88;;;;;;;21.08;83.57;101481.59;5024791;28;20487;-78
2023/06/26 07:34:25;;;;;;;9.98;3.70;;;;;;;21.24;81.49;101496.97;5037687;28;20077;-78
2023/06/26 07:36:50;;;;;;;8.57;3.20;;;;;;;21.24;82.85;101488.84;5022637;28;20092;-78
2023/06/26 07:39:16;;;;;;;7.72;3.22;;;;;;;21.33;81.79;101491.94;5041845;28;20071;-75
2023/06/26 07:41:41;;;;;;;9.63;4.03;;;;;;;21.51;83.21;101493.53;5014231;28;20461;-75
2023/06/26 07:44:06;;;;;;;7.47;2.83;;;;;;;21.56;83.06;101499.00;5031730;28;20029;-79
2023/06/26 07:46:32;;;;;;;8.88;3.80;;;;;;;21.44;81.04;101502.69;5029424;28;21071;-79
2023/06/26 07:48:57;;;;;;;7.88;2.90;;;;;;;21.55;82.94;101503.63;5031169;28;20100;-79
2023/06/26 07:51:23;;;;;;;9.15;3.03;;;;;;;21.69;82.51;101498.63;5014060;28;20098;-79
2023/06/26 07:53:48;;;;;;;10.30;3.40;;;;;;;21.67;82.17;101501.59;5033642;28;20042;-80
2023/06/26 07:56:15;;;;;;;9.80;3.80;;;;;;;21.74;82.10;101504.09;5033216;28;20405;-76
2023/06/26 07:58:40;;;;;;;10.68;4.70;;;;;;;21.75;81.36;101511.19;5033774;28;20083;-79
2023/06/26 08:01:06;;;;;;;10.82;4.25;;;;;;;21.67;79.48;101525.22;5032398;28;20112;-73
2023/06/26 08:03:31;;;;;;;6.13;3.78;;;;;;;21.65;80.11;101530.91;5016456;28;20030;-74
2023/06/26 08:05:57;;;;;;;9.02;4.97;;;;;;;21.77;81.15;101521.78;5012773;28;20053;-75
2023/06/26 08:08:22;;;;;;;7.88;4.55;;;;;;;21.96;78.72;101519.56;5032843;28;20116;-76
2023/06/26 08:10:47;;;;;;;11.02;3.88;;;;;;;22.29;77.26;101529.38;5032899;28;20455;-77
2023/06/26 08:13:13;;;;;;;5.80;3.60;;;;;;;22.51;77.27;101518.44;5032130;28;20120;-73
2023/06/26 08:15:39;;;;;;;8.50;3.38;;;;;;;22.29;79.69;101532.09;5032432;28;20040;-76
2023/06/26 08:18:04;;;;;;;5.50;3.63;;;;;;;22.14;76.02;101526.50;5034354;28;20034;-73
2023/06/26 08:20:30;;;;;;;10.80;3.72;;;;;;;22.92;72.21;101524.13;5032139;28;20042;-79
2023/06/26 08:22:55;;;;;;;6.15;3.60;;;;;;;23.55;69.34;101535.91;5032926;28;20108;-74
2023/06/26 08:25:20;;;;;;;6.72;2.63;;;;;;;23.45;67.75;101532.31;5032692;28;21107;-76
2023/06/26 08:27:46;;;;;;;9.48;3.40;;;;;;;23.70;68.07;101534.31;5033203;28;20037;-77
2023/06/26 08:30:13;;;;;;;8.07;2.05;;;;;;;24.44;61.37;101533.06;5033085;28;20048;-78
2023/06/26 08:32:38;;;;;;;3.40;2.50;;;;;;;23.80;61.31;101545.28;5033791;28;20091;-79
2023/06/26 08:35:05;;;;;;;5.70;1.85;;;;;;;23.90;59.43;101542.56;5033378;28;20415;-78
2023/06/26 08:37:32;;;;;;;5.35;1.67;;;;;;;25.49;50.95;101542.44;5034097;28;20057;-77
2023/06/26 08:39:58;;;;;;;2.22;1.02;;;;;;;26.78;45.98;101548.69;5034697;28;20075;-79
2023/06/26 08:42:23;;;;;;;3.42;1.25;;;;;;;27.71;42.97;101547.31;5036260;28;20025;-78
2023/06/26 08:44:49;;;;;;;2.40;1.50;;;;;;;28.87;41.48;101549.63;5035085;28;20022;-78
2023/06/26 08:47:15;;;;;;;3.35;1.35;;;;;;;29.85;40.06;101547.34;5036450;28;20499;-78
2023/06/26 08:50:00;;;;;;;4.50;1.70;;;;;;;30.53;40.57;101552.91;5036172;28;20037;-79
2023/06/26 08:52:35;;;;;;;4.10;1.50;;;;;;;31.12;39.33;101556.25;5016560;28;20055;-79
2023/06/26 08:55:06;;;;;;;5.70;1.50;;;;;;;31.82;36.64;101560.00;5034614;28;20475;-78
2023/06/26 08:57:32;;;;;;;1.13;1.00;;;;;;;32.13;34.96;101548.03;5036920;28;20105;-79
2023/06/26 08:59:58;;;;;;;6.72;1.50;;;;;;;31.75;35.18;101567.94;5035255;28;20861;-73
2023/06/26 09:02:24;;;;;;;1.77;1.27;;;;;;;31.38;35.84;101572.09;5035832;28;20045;-74
2023/06/26 09:04:50;;;;;;;4.95;1.40;;;;;;;31.29;36.40;101566.53;5018222;28;20090;-75
2023/06/26 09:07:16;;;;;;;16.60;2.03;;;;;;;31.16;36.35;101575.75;5041210;28;20041;-75
2023/06/26 09:09:41;;;;;;;3.60;1.80;;;;;;;30.13;38.84;101570.09;5038367;28;20115;-74
2023/06/26 09:12:08;;;;;;;3.08;1.02;;;;;;;28.75;40.17;101577.59;5050440;28;20127;-74
2023/06/26 09:14:34;;;;;;;3.90;1.42;;;;;;;27.17;43.28;101570.50;5051701;28;20414;-74
2023/06/26 09:17:00;;;;;;;3.28;1.30;;;;;;;26.47;47.48;101589.97;5051311;28;20021;-74
2023/06/26 09:19:26;;;;;;;3.45;1.63;;;;;;;25.72;50.30;101584.69;5051126;28;20039;-74
2023/06/26 09:21:52;;;;;;;8.57;2.50;;;;;;;25.26;50.80;101577.50;5046885;28;20408;-76
2023/06/26 09:24:18;;;;;;;3.28;1.52;;;;;;;24.92;53.37;101586.28;5031403;28;20076;-74
2023/06/26 09:26:44;;;;;;;5.90;1.50;;;;;;;24.66;51.98;101596.38;5030770;28;20557;-76
2023/06/26 09:29:09;;;;;;;7.28;1.88;;;;;;;24.38;53.51;101584.06;5032297;28;20029;-75
2023/06/26 09:31:39;;;;;;;5.25;1.70;;;;;;;24.30;54.41;101581.88;5032296;28;20155;-75
2023/06/26 09:34:04;;;;;;;9.02;2.38;;;;;;;24.11;54.13;101583.50;5032082;28;20484;-74
2023/06/26 09:36:36;;;;;;;5.85;1.55;;;;;;;23.74;56.31;101585.31;5032127;28;20487;-74
2023/06/26 09:39:08;;;;;;;1.35;1.25;;;;;;;23.75;54.63;101580.66;5032136;28;20056;-74
2023/06/26 09:41:34;;;;;;;6.20;2.22;;;;;;;23.72;53.39;101592.09;5032282;28;20028;-75
2023/06/26 09:44:02;;;;;;;2.65;1.10;;;;;;;23.66;52.91;101606.75;5032140;28;20037;-74
2023/06/26 09:46:29;;;;;;;1.63;0.95;;;;;;;23.50;52.66;101609.41;5032073;28;20038;-75
2023/06/26 09:49:10;;;;;;;3.88;2.40;;;;;;;23.53;53.47;101621.69;5031097;28;20044;-74
2023/06/26 09:51:37;;;;;;;6.32;1.65;;;;;;;23.48;52.51;101621.66;5031863;28;20033;-75
2023/06/26 09:54:03;;;;;;;7.10;2.10;;;;;;;23.37;53.72;101621.59;5031859;28;20111;-75
2023/06/26 09:56:30;;;;;;;8.85;1.70;;;;;;;23.31;50.97;101619.09;5031777;28;20038;-75
2023/06/26 09:58:57;;;;;;;6.07;1.90;;;;;;;23.35;54.02;101639.28;5031714;28;20041;-74
2023/06/26 10:01:23;;;;;;;4.93;2.05;;;;;;;23.28;52.33;101633.25;5032093;28;20065;-75
2023/06/26 10:03:49;;;;;;;3.70;1.33;;;;;;;23.46;53.20;101618.38;5029525;28;20053;-75
2023/06/26 10:06:17;;;;;;;5.95;1.45;;;;;;;23.57;53.92;101623.59;5050866;28;20083;-75
2023/06/26 10:08:43;;;;;;;4.63;1.60;;;;;;;23.65;53.07;101613.28;5041860;28;20761;-75
2023/06/26 10:11:13;;;;;;;1.83;1.30;;;;;;;23.75;52.05;101622.34;5031624;28;20115;-74
2023/06/26 10:13:43;;;;;;;2.75;1.30;;;;;;;23.73;51.39;101620.97;5044391;28;20071;-75
2023/06/26 10:16:10;;;;;;;4.10;1.27;;;;;;;23.63;50.52;101630.72;5050133;28;20037;-73
2023/06/26 10:18:38;;;;;;;4.85;1.20;;;;;;;23.51;51.93;101638.28;5032143;28;20086;-74
2023/06/26 10:21:06;;;;;;;3.92;1.55;;;;;;;23.55;50.91;101647.56;5050433;28;20029;-74
2023/06/26 10:23:33;;;;;;;4.15;1.30;;;;;;;23.57;50.61;101641.84;5031400;28;20438;-75
2023/06/26 10:26:00;;;;;;;7.13;1.30;;;;;;;23.31;50.29;101638.16;5050422;28;20043;-75
2023/06/26 10:28:28;;;;;;;3.35;1.35;;;;;;;23.17;48.92;101648.69;5048226;28;20087;-72
2023/06/26 10:30:55;;;;;;;3.60;1.08;;;;;;;23.27;52.44;101648.75;5032076;28;20029;-74
2023/06/26 10:33:21;;;;;;;3.47;1.10;;;;;;;23.28;46.00;101646.84;5035450;28;20475;-75
2023/06/26 10:35:47;;;;;;;2.95;1.10;;;;;;;23.33;46.18;101647.69;5033736;28;20029;-73
2023/06/26 10:38:12;;;;;;;1.70;1.15;;;;;;;23.31;47.81;101641.69;5034911;28;20130;-74
2023/06/26 10:40:44;;;;;;;4.03;1.30;;;;;;;23.56;50.64;101643.75;5033961;28;20108;-75
2023/06/26 10:43:11;;;;;;;4.07;0.95;;;;;;;23.68;50.24;101650.88;5010015;28;20078;-76
2023/06/26 10:45:43;;;;;;;2.25;1.00;;;;;;;23.62;49.07;101634.50;5034196;28;20035;-78
2023/06/26 10:48:09;;;;;;;2.95;1.23;;;;;;;23.61;48.29;101651.13;5035184;28;20024;-77
2023/06/26 10:50:40;;;;;;;10.65;2.30;;;;;;;23.72;48.95;101654.75;5017009;28;20360;-76
2023/06/26 10:53:18;;;;;;;1.77;1.05;;;;;;;23.94;50.23;101657.28;5034220;28;20029;-72
2023/06/26 10:55:48;;;;;;;4.05;1.42;;;;;;;24.14;49.07;101662.00;5030660;28;20495;-79
2023/06/26 10:58:29;;;;;;;4.00;0.93;;;;;;;24.34;47.61;101666.66;5020389;28;20036;-79
2023/06/26 11:01:14;;;;;;;7.40;1.27;;;;;;;24.04;47.09;101658.13;5030414;28;20077;-78
2023/06/26 11:03:40;;;;;;;0.95;0.90;;;;;;;23.74;44.34;101658.03;5041543;28;20033;-80
2023/06/26 11:06:23;;;;;;;1.38;0.85;;;;;;;23.56;42.88;101665.53;5042964;28;20494;-79
2023/06/26 11:09:01;;;;;;;3.05;0.80;;;;;;;23.45;45.18;101671.16;5020501;28;20475;-80
2023/06/26 11:11:52;;;;;;;3.80;1.20;;;;;;;23.60;45.73;101673.97;5047767;28;20487;-80
2023/06/26 11:14:19;;;;;;;2.67;1.73;;;;;;;23.73;44.50;101675.44;5045082;28;20048;-80
2023/06/26 11:16:44;;;;;;;10.75;1.70;;;;;;;23.86;43.10;101682.31;5048796;28;20043;-79
2023/06/26 11:19:11;;;;;;;3.60;1.33;;;;;;;23.87;43.56;101683.94;5044595;28;20416;-78
2023/06/26 11:21:39;;;;;;;8.90;1.42;;;;;;;23.88;42.88;101674.72;5020650;28;20037;-75
2023/06/26 11:24:07;;;;;;;4.10;1.48;;;;;;;23.84;45.38;101671.69;5012565;28;20495;-76
2023/06/26 11:26:42;;;;;;;3.95;1.33;;;;;;;23.59;44.05;101700.41;5030108;28;20040;-76
2023/06/26 11:29:08;;;;;;;3.28;1.10;;;;;;;23.59;45.73;101689.50;5030025;28;20037;-76
2023/06/26 11:31:38;;;;;;;1.85;1.52;;;;;;;23.62;43.53;101699.06;5029833;28;20028;-76